sensor_id;sensor_type;location;lat;lon;timestamp;P1;durP1;ratioP1;P2;durP2;ratioP2
46971;SDS011;32722;43.486;2.766;2022-09-12T00:00:28;4.13;;;1.20;;
46971;SDS011;32722;43.486;2.766;2022-09-12T00:02:56;3.45;;;0.93;;
46971;SDS011;32722;43.486;2.766;2022-09-12T00:05:23;3.45;;;1.20;;
46971;SDS011;32722;43.486;2.766;2022-09-12T00:07:49;2.78;;;1.10;;
46971;SDS011;32722;43.486;2.766;2022-09-12T00:10:15;3.33;;;0.85;;
46971;SDS011;32722;43.486;2.766;2022-09-12T00:12:42;1.75;;;1.05;;
46971;SDS011;32722;43.486;2.766;2022-09-12T00:15:08;4.70;;;1.10;;
46971;SDS011;32722;43.486;2.766;2022-09-12T00:17:35;2.92;;;1.02;;
46971;SDS011;32722;43.486;2.766;2022-09-12T00:20:02;2.88;;;1.20;;
46971;SDS011;32722;43.486;2.766;2022-09-12T00:22:29;3.20;;;1.00;;
46971;SDS011;32722;43.486;2.766;2022-09-12T00:24:55;1.30;;;0.90;;
46971;SDS011;32722;43.486;2.766;2022-09-12T00:27:21;1.10;;;0.88;;
46971;SDS011;32722;43.486;2.766;2022-09-12T00:29:47;0.85;;;0.77;;
46971;SDS011;32722;43.486;2.766;2022-09-12T00:32:13;2.95;;;1.02;;
46971;SDS011;32722;43.486;2.766;2022-09-12T00:34:39;3.55;;;1.30;;
46971;SDS011;32722;43.486;2.766;2022-09-12T00:37:05;3.15;;;0.90;;
46971;SDS011;32722;43.486;2.766;2022-09-12T00:39:31;3.05;;;1.23;;
46971;SDS011;32722;43.486;2.766;2022-09-12T00:41:58;1.85;;;1.10;;
46971;SDS011;32722;43.486;2.766;2022-09-12T00:51:50;1.20;;;0.80;;
46971;SDS011;32722;43.486;2.766;2022-09-12T00:54:21;1.90;;;1.10;;
46971;SDS011;32722;43.486;2.766;2022-09-12T00:56:50;4.47;;;1.20;;
46971;SDS011;32722;43.486;2.766;2022-09-12T00:59:19;6.63;;;1.27;;
46971;SDS011;32722;43.486;2.766;2022-09-12T01:01:47;3.53;;;1.13;;
46971;SDS011;32722;43.486;2.766;2022-09-12T01:04:15;2.47;;;1.20;;
46971;SDS011;32722;43.486;2.766;2022-09-12T01:06:42;3.05;;;1.23;;
46971;SDS011;32722;43.486;2.766;2022-09-12T01:09:13;1.58;;;1.02;;
46971;SDS011;32722;43.486;2.766;2022-09-12T01:11:40;2.72;;;1.38;;
46971;SDS011;32722;43.486;2.766;2022-09-12T01:14:10;1.58;;;1.02;;
46971;SDS011;32722;43.486;2.766;2022-09-12T01:16:36;1.33;;;1.10;;
46971;SDS011;32722;43.486;2.766;2022-09-12T01:26:56;1.42;;;1.05;;
46971;SDS011;32722;43.486;2.766;2022-09-12T01:35:02;3.08;;;1.05;;
46971;SDS011;32722;43.486;2.766;2022-09-12T01:40:14;2.47;;;1.17;;
46971;SDS011;32722;43.486;2.766;2022-09-12T01:42:50;2.17;;;1.08;;
46971;SDS011;32722;43.486;2.766;2022-09-12T01:45:37;2.92;;;1.00;;
46971;SDS011;32722;43.486;2.766;2022-09-12T01:48:07;3.00;;;1.13;;
46971;SDS011;32722;43.486;2.766;2022-09-12T01:50:39;1.70;;;0.90;;
46971;SDS011;32722;43.486;2.766;2022-09-12T01:53:43;2.58;;;1.10;;
46971;SDS011;32722;43.486;2.766;2022-09-12T01:59:14;2.35;;;0.90;;
46971;SDS011;32722;43.486;2.766;2022-09-12T02:01:49;2.17;;;1.08;;
46971;SDS011;32722;43.486;2.766;2022-09-12T02:06:46;2.95;;;1.00;;
46971;SDS011;32722;43.486;2.766;2022-09-12T02:09:21;2.83;;;0.98;;
46971;SDS011;32722;43.486;2.766;2022-09-12T02:11:49;2.15;;;1.10;;
46971;SDS011;32722;43.486;2.766;2022-09-12T02:14:19;2.40;;;1.00;;
46971;SDS011;32722;43.486;2.766;2022-09-12T02:16:57;0.93;;;0.90;;
46971;SDS011;32722;43.486;2.766;2022-09-12T02:19:26;2.15;;;1.20;;
46971;SDS011;32722;43.486;2.766;2022-09-12T02:21:54;1.10;;;0.80;;
46971;SDS011;32722;43.486;2.766;2022-09-12T02:24:27;2.10;;;0.95;;
46971;SDS011;32722;43.486;2.766;2022-09-12T02:26:58;2.97;;;1.10;;
46971;SDS011;32722;43.486;2.766;2022-09-12T02:29:25;1.92;;;0.90;;
46971;SDS011;32722;43.486;2.766;2022-09-12T02:31:53;2.33;;;1.60;;
46971;SDS011;32722;43.486;2.766;2022-09-12T02:37:09;3.45;;;1.05;;
46971;SDS011;32722;43.486;2.766;2022-09-12T02:42:03;1.10;;;1.00;;
46971;SDS011;32722;43.486;2.766;2022-09-12T02:44:29;1.02;;;0.75;;
46971;SDS011;32722;43.486;2.766;2022-09-12T02:47:01;1.80;;;0.82;;
46971;SDS011;32722;43.486;2.766;2022-09-12T02:49:29;1.67;;;1.20;;
46971;SDS011;32722;43.486;2.766;2022-09-12T02:51:55;4.47;;;1.00;;
46971;SDS011;32722;43.486;2.766;2022-09-12T02:54:21;2.78;;;1.02;;
46971;SDS011;32722;43.486;2.766;2022-09-12T02:56:48;1.75;;;1.10;;
46971;SDS011;32722;43.486;2.766;2022-09-12T02:59:15;1.27;;;0.90;;
46971;SDS011;32722;43.486;2.766;2022-09-12T03:11:46;3.47;;;1.17;;
46971;SDS011;32722;43.486;2.766;2022-09-12T03:22:42;2.60;;;1.17;;
46971;SDS011;32722;43.486;2.766;2022-09-12T03:27:39;2.70;;;1.10;;
46971;SDS011;32722;43.486;2.766;2022-09-12T03:30:08;1.92;;;1.17;;
46971;SDS011;32722;43.486;2.766;2022-09-12T03:32:42;4.07;;;1.25;;
46971;SDS011;32722;43.486;2.766;2022-09-12T03:35:08;1.02;;;0.95;;
46971;SDS011;32722;43.486;2.766;2022-09-12T03:37:34;1.20;;;0.90;;
46971;SDS011;32722;43.486;2.766;2022-09-12T03:40:02;3.55;;;1.10;;
46971;SDS011;32722;43.486;2.766;2022-09-12T03:42:28;1.13;;;0.98;;
46971;SDS011;32722;43.486;2.766;2022-09-12T03:44:54;2.63;;;0.77;;
46971;SDS011;32722;43.486;2.766;2022-09-12T03:47:20;0.82;;;0.70;;
46971;SDS011;32722;43.486;2.766;2022-09-12T03:49:46;3.72;;;1.00;;
46971;SDS011;32722;43.486;2.766;2022-09-12T03:52:13;1.70;;;0.90;;
46971;SDS011;32722;43.486;2.766;2022-09-12T03:54:39;1.85;;;0.93;;
46971;SDS011;32722;43.486;2.766;2022-09-12T03:57:05;1.60;;;1.20;;
46971;SDS011;32722;43.486;2.766;2022-09-12T03:59:31;1.70;;;1.00;;
46971;SDS011;32722;43.486;2.766;2022-09-12T04:01:57;1.45;;;0.93;;
46971;SDS011;32722;43.486;2.766;2022-09-12T04:04:23;2.38;;;1.20;;
46971;SDS011;32722;43.486;2.766;2022-09-12T04:06:50;1.88;;;0.90;;
46971;SDS011;32722;43.486;2.766;2022-09-12T04:09:16;1.30;;;1.00;;
46971;SDS011;32722;43.486;2.766;2022-09-12T04:11:42;1.92;;;1.23;;
46971;SDS011;32722;43.486;2.766;2022-09-12T04:14:08;2.55;;;1.20;;
46971;SDS011;32722;43.486;2.766;2022-09-12T04:16:34;1.10;;;1.00;;
46971;SDS011;32722;43.486;2.766;2022-09-12T04:19:00;1.70;;;0.80;;
46971;SDS011;32722;43.486;2.766;2022-09-12T04:21:26;2.33;;;0.95;;
46971;SDS011;32722;43.486;2.766;2022-09-12T04:23:52;1.95;;;1.20;;
46971;SDS011;32722;43.486;2.766;2022-09-12T04:26:19;2.17;;;1.30;;
46971;SDS011;32722;43.486;2.766;2022-09-12T04:28:45;1.85;;;1.25;;
46971;SDS011;32722;43.486;2.766;2022-09-12T04:31:12;6.00;;;1.60;;
46971;SDS011;32722;43.486;2.766;2022-09-12T04:33:42;1.23;;;0.82;;
46971;SDS011;32722;43.486;2.766;2022-09-12T04:36:10;3.05;;;1.23;;
46971;SDS011;32722;43.486;2.766;2022-09-12T04:38:38;1.83;;;0.90;;
46971;SDS011;32722;43.486;2.766;2022-09-12T04:41:14;1.92;;;1.38;;
46971;SDS011;32722;43.486;2.766;2022-09-12T04:43:41;2.88;;;1.10;;
46971;SDS011;32722;43.486;2.766;2022-09-12T04:46:08;1.33;;;0.95;;
46971;SDS011;32722;43.486;2.766;2022-09-12T04:48:35;2.25;;;1.15;;
46971;SDS011;32722;43.486;2.766;2022-09-12T04:51:08;1.17;;;1.08;;
46971;SDS011;32722;43.486;2.766;2022-09-12T04:53:35;1.77;;;1.02;;
46971;SDS011;32722;43.486;2.766;2022-09-12T04:56:05;3.38;;;1.10;;
46971;SDS011;32722;43.486;2.766;2022-09-12T04:58:32;1.60;;;1.02;;
46971;SDS011;32722;43.486;2.766;2022-09-12T05:01:08;1.92;;;0.90;;
46971;SDS011;32722;43.486;2.766;2022-09-12T05:03:36;3.88;;;1.13;;
46971;SDS011;32722;43.486;2.766;2022-09-12T05:06:08;1.88;;;1.02;;
46971;SDS011;32722;43.486;2.766;2022-09-12T05:08:35;3.85;;;1.10;;
46971;SDS011;32722;43.486;2.766;2022-09-12T05:11:05;1.40;;;1.02;;
46971;SDS011;32722;43.486;2.766;2022-09-12T05:13:31;1.83;;;1.33;;
46971;SDS011;32722;43.486;2.766;2022-09-12T05:15:58;2.15;;;1.00;;
46971;SDS011;32722;43.486;2.766;2022-09-12T05:18:25;2.65;;;1.10;;
46971;SDS011;32722;43.486;2.766;2022-09-12T05:20:54;1.45;;;1.10;;
46971;SDS011;32722;43.486;2.766;2022-09-12T05:23:20;2.92;;;1.10;;
46971;SDS011;32722;43.486;2.766;2022-09-12T05:25:48;2.75;;;1.08;;
46971;SDS011;32722;43.486;2.766;2022-09-12T05:28:14;2.45;;;1.00;;
46971;SDS011;32722;43.486;2.766;2022-09-12T05:30:42;1.60;;;1.02;;
46971;SDS011;32722;43.486;2.766;2022-09-12T05:33:08;3.08;;;1.23;;
46971;SDS011;32722;43.486;2.766;2022-09-12T05:35:35;1.80;;;0.90;;
46971;SDS011;32722;43.486;2.766;2022-09-12T05:38:02;3.20;;;1.30;;
46971;SDS011;32722;43.486;2.766;2022-09-12T05:40:29;4.03;;;1.23;;
46971;SDS011;32722;43.486;2.766;2022-09-12T05:42:55;3.05;;;1.00;;
46971;SDS011;32722;43.486;2.766;2022-09-12T05:45:21;2.15;;;1.00;;
46971;SDS011;32722;43.486;2.766;2022-09-12T05:47:47;2.75;;;1.25;;
46971;SDS011;32722;43.486;2.766;2022-09-12T05:50:14;2.15;;;0.90;;
46971;SDS011;32722;43.486;2.766;2022-09-12T05:52:40;4.45;;;1.13;;
46971;SDS011;32722;43.486;2.766;2022-09-12T05:55:06;1.52;;;1.02;;
46971;SDS011;32722;43.486;2.766;2022-09-12T05:57:32;3.95;;;1.10;;
46971;SDS011;32722;43.486;2.766;2022-09-12T05:59:59;2.72;;;1.20;;
46971;SDS011;32722;43.486;2.766;2022-09-12T06:02:25;4.18;;;1.10;;
46971;SDS011;32722;43.486;2.766;2022-09-12T06:04:51;3.15;;;1.13;;
46971;SDS011;32722;43.486;2.766;2022-09-12T06:07:17;13.05;;;11.38;;
46971;SDS011;32722;43.486;2.766;2022-09-12T06:09:43;6.22;;;3.60;;
46971;SDS011;32722;43.486;2.766;2022-09-12T06:12:09;4.78;;;1.75;;
46971;SDS011;32722;43.486;2.766;2022-09-12T06:14:35;2.55;;;1.10;;
46971;SDS011;32722;43.486;2.766;2022-09-12T06:17:02;1.80;;;1.00;;
46971;SDS011;32722;43.486;2.766;2022-09-12T06:19:29;4.70;;;1.10;;
46971;SDS011;32722;43.486;2.766;2022-09-12T06:21:55;2.30;;;1.05;;
46971;SDS011;32722;43.486;2.766;2022-09-12T06:24:21;2.92;;;0.98;;
46971;SDS011;32722;43.486;2.766;2022-09-12T06:26:48;2.22;;;1.20;;
46971;SDS011;32722;43.486;2.766;2022-09-12T06:29:16;1.40;;;0.90;;
46971;SDS011;32722;43.486;2.766;2022-09-12T06:31:43;1.75;;;1.08;;
46971;SDS011;32722;43.486;2.766;2022-09-12T06:34:11;1.10;;;1.00;;
46971;SDS011;32722;43.486;2.766;2022-09-12T06:36:42;2.65;;;1.23;;
46971;SDS011;32722;43.486;2.766;2022-09-12T06:39:18;3.25;;;1.38;;
46971;SDS011;32722;43.486;2.766;2022-09-12T06:41:45;4.80;;;1.17;;
46971;SDS011;32722;43.486;2.766;2022-09-12T06:44:16;2.95;;;1.27;;
46971;SDS011;32722;43.486;2.766;2022-09-12T06:46:42;2.70;;;1.87;;
46971;SDS011;32722;43.486;2.766;2022-09-12T06:49:09;8.48;;;3.10;;
46971;SDS011;32722;43.486;2.766;2022-09-12T06:51:35;7.70;;;3.42;;
46971;SDS011;32722;43.486;2.766;2022-09-12T06:54:01;3.90;;;2.70;;
46971;SDS011;32722;43.486;2.766;2022-09-12T06:56:27;3.85;;;2.65;;
46971;SDS011;32722;43.486;2.766;2022-09-12T06:58:54;3.17;;;2.35;;
46971;SDS011;32722;43.486;2.766;2022-09-12T07:01:22;10.48;;;2.92;;
46971;SDS011;32722;43.486;2.766;2022-09-12T07:03:49;4.65;;;2.60;;
46971;SDS011;32722;43.486;2.766;2022-09-12T07:06:17;3.97;;;1.98;;
46971;SDS011;32722;43.486;2.766;2022-09-12T07:08:43;4.60;;;2.05;;
46971;SDS011;32722;43.486;2.766;2022-09-12T07:13:39;4.85;;;2.08;;
46971;SDS011;32722;43.486;2.766;2022-09-12T07:16:05;3.58;;;2.03;;
46971;SDS011;32722;43.486;2.766;2022-09-12T07:18:32;4.60;;;2.30;;
46971;SDS011;32722;43.486;2.766;2022-09-12T07:20:59;8.52;;;2.42;;
46971;SDS011;32722;43.486;2.766;2022-09-12T07:23:26;5.95;;;2.30;;
46971;SDS011;32722;43.486;2.766;2022-09-12T07:25:52;4.72;;;2.03;;
46971;SDS011;32722;43.486;2.766;2022-09-12T07:28:21;4.00;;;2.28;;
46971;SDS011;32722;43.486;2.766;2022-09-12T07:30:48;4.53;;;1.80;;
46971;SDS011;32722;43.486;2.766;2022-09-12T07:33:15;5.05;;;2.20;;
46971;SDS011;32722;43.486;2.766;2022-09-12T07:35:41;3.22;;;2.00;;
46971;SDS011;32722;43.486;2.766;2022-09-12T07:38:07;2.40;;;1.45;;
46971;SDS011;32722;43.486;2.766;2022-09-12T07:40:34;7.82;;;2.05;;
46971;SDS011;32722;43.486;2.766;2022-09-12T07:43:00;7.13;;;2.05;;
46971;SDS011;32722;43.486;2.766;2022-09-12T07:45:26;8.27;;;2.40;;
46971;SDS011;32722;43.486;2.766;2022-09-12T07:47:53;7.45;;;1.90;;
46971;SDS011;32722;43.486;2.766;2022-09-12T07:50:19;9.18;;;1.85;;
46971;SDS011;32722;43.486;2.766;2022-09-12T07:52:46;8.40;;;2.10;;
46971;SDS011;32722;43.486;2.766;2022-09-12T07:55:12;9.07;;;2.17;;
46971;SDS011;32722;43.486;2.766;2022-09-12T07:57:38;8.65;;;1.98;;
46971;SDS011;32722;43.486;2.766;2022-09-12T08:00:05;5.22;;;1.50;;
46971;SDS011;32722;43.486;2.766;2022-09-12T08:02:33;7.35;;;2.13;;
46971;SDS011;32722;43.486;2.766;2022-09-12T08:05:00;7.18;;;1.63;;
46971;SDS011;32722;43.486;2.766;2022-09-12T08:07:26;5.38;;;1.40;;
46971;SDS011;32722;43.486;2.766;2022-09-12T08:09:52;4.60;;;1.80;;
46971;SDS011;32722;43.486;2.766;2022-09-12T08:12:19;5.65;;;1.42;;
46971;SDS011;32722;43.486;2.766;2022-09-12T08:14:45;6.55;;;1.40;;
46971;SDS011;32722;43.486;2.766;2022-09-12T08:17:12;6.93;;;1.60;;
46971;SDS011;32722;43.486;2.766;2022-09-12T08:19:38;6.03;;;1.70;;
46971;SDS011;32722;43.486;2.766;2022-09-12T08:22:04;3.28;;;1.65;;
46971;SDS011;32722;43.486;2.766;2022-09-12T08:24:30;4.40;;;1.70;;
46971;SDS011;32722;43.486;2.766;2022-09-12T08:26:56;5.80;;;1.50;;
46971;SDS011;32722;43.486;2.766;2022-09-12T08:29:22;3.70;;;1.50;;
46971;SDS011;32722;43.486;2.766;2022-09-12T08:31:49;4.03;;;1.45;;
46971;SDS011;32722;43.486;2.766;2022-09-12T08:34:15;7.88;;;1.45;;
46971;SDS011;32722;43.486;2.766;2022-09-12T08:36:43;4.32;;;1.50;;
46971;SDS011;32722;43.486;2.766;2022-09-12T08:39:12;7.80;;;1.50;;
46971;SDS011;32722;43.486;2.766;2022-09-12T08:41:42;10.40;;;1.70;;
46971;SDS011;32722;43.486;2.766;2022-09-12T08:49:09;18.92;;;2.17;;
46971;SDS011;32722;43.486;2.766;2022-09-12T08:51:35;13.25;;;2.20;;
46971;SDS011;32722;43.486;2.766;2022-09-12T08:54:02;11.38;;;1.58;;
46971;SDS011;32722;43.486;2.766;2022-09-12T08:56:30;12.15;;;1.88;;
46971;SDS011;32722;43.486;2.766;2022-09-12T08:58:59;23.45;;;1.88;;
46971;SDS011;32722;43.486;2.766;2022-09-12T09:16:31;7.07;;;1.42;;
46971;SDS011;32722;43.486;2.766;2022-09-12T09:19:03;7.72;;;1.10;;
46971;SDS011;32722;43.486;2.766;2022-09-12T09:22:04;4.25;;;1.50;;
46971;SDS011;32722;43.486;2.766;2022-09-12T09:24:42;1.83;;;0.80;;
46971;SDS011;32722;43.486;2.766;2022-09-12T09:27:11;5.55;;;0.93;;
46971;SDS011;32722;43.486;2.766;2022-09-12T09:29:40;4.50;;;0.90;;
46971;SDS011;32722;43.486;2.766;2022-09-12T09:32:12;4.28;;;0.80;;
46971;SDS011;32722;43.486;2.766;2022-09-12T09:34:39;4.65;;;0.88;;
46971;SDS011;32722;43.486;2.766;2022-09-12T09:37:10;1.50;;;0.80;;
46971;SDS011;32722;43.486;2.766;2022-09-12T09:39:47;2.67;;;1.13;;
46971;SDS011;32722;43.486;2.766;2022-09-12T09:44:56;3.35;;;0.88;;
46971;SDS011;32722;43.486;2.766;2022-09-12T09:47:24;2.88;;;1.02;;
46971;SDS011;32722;43.486;2.766;2022-09-12T09:49:50;1.20;;;0.65;;
46971;SDS011;32722;43.486;2.766;2022-09-12T09:52:19;1.30;;;0.90;;
46971;SDS011;32722;43.486;2.766;2022-09-12T09:55:37;3.08;;;1.00;;
46971;SDS011;32722;43.486;2.766;2022-09-12T10:05:33;1.88;;;1.00;;
46971;SDS011;32722;43.486;2.766;2022-09-12T10:08:00;4.00;;;0.80;;
46971;SDS011;32722;43.486;2.766;2022-09-12T10:10:26;1.15;;;0.80;;
46971;SDS011;32722;43.486;2.766;2022-09-12T10:13:08;2.65;;;1.10;;
46971;SDS011;32722;43.486;2.766;2022-09-12T10:15:34;4.15;;;1.05;;
46971;SDS011;32722;43.486;2.766;2022-09-12T10:18:02;3.08;;;1.05;;
46971;SDS011;32722;43.486;2.766;2022-09-12T10:20:30;2.38;;;1.33;;
46971;SDS011;32722;43.486;2.766;2022-09-12T10:23:01;3.13;;;1.20;;
46971;SDS011;32722;43.486;2.766;2022-09-12T10:25:28;3.33;;;1.50;;
46971;SDS011;32722;43.486;2.766;2022-09-12T10:27:56;3.95;;;1.25;;
46971;SDS011;32722;43.486;2.766;2022-09-12T10:30:23;3.85;;;1.40;;
46971;SDS011;32722;43.486;2.766;2022-09-12T10:32:49;2.08;;;1.33;;
46971;SDS011;32722;43.486;2.766;2022-09-12T10:35:17;5.03;;;1.75;;
46971;SDS011;32722;43.486;2.766;2022-09-12T10:42:50;3.65;;;1.60;;
46971;SDS011;32722;43.486;2.766;2022-09-12T10:47:46;3.83;;;1.75;;
46971;SDS011;32722;43.486;2.766;2022-09-12T10:50:20;3.42;;;1.80;;
46971;SDS011;32722;43.486;2.766;2022-09-12T10:52:46;2.80;;;1.75;;
46971;SDS011;32722;43.486;2.766;2022-09-12T10:55:13;3.40;;;1.65;;
46971;SDS011;32722;43.486;2.766;2022-09-12T10:57:52;3.67;;;1.85;;
46971;SDS011;32722;43.486;2.766;2022-09-12T11:00:19;4.53;;;1.50;;
46971;SDS011;32722;43.486;2.766;2022-09-12T11:18:06;3.58;;;1.63;;
46971;SDS011;32722;43.486;2.766;2022-09-12T11:20:37;3.78;;;1.85;;
46971;SDS011;32722;43.486;2.766;2022-09-12T11:23:20;5.20;;;1.77;;
46971;SDS011;32722;43.486;2.766;2022-09-12T11:28:34;2.47;;;1.70;;
46971;SDS011;32722;43.486;2.766;2022-09-12T11:36:06;2.38;;;1.70;;
46971;SDS011;32722;43.486;2.766;2022-09-12T11:38:42;2.65;;;1.80;;
46971;SDS011;32722;43.486;2.766;2022-09-12T11:41:20;6.07;;;1.63;;
46971;SDS011;32722;43.486;2.766;2022-09-12T11:43:53;7.22;;;2.08;;
46971;SDS011;32722;43.486;2.766;2022-09-12T11:46:40;4.65;;;1.92;;
46971;SDS011;32722;43.486;2.766;2022-09-12T11:54:23;3.65;;;1.70;;
46971;SDS011;32722;43.486;2.766;2022-09-12T11:57:05;4.55;;;2.20;;
46971;SDS011;32722;43.486;2.766;2022-09-12T11:59:42;6.18;;;2.28;;
46971;SDS011;32722;43.486;2.766;2022-09-12T12:02:14;7.70;;;2.15;;
46971;SDS011;32722;43.486;2.766;2022-09-12T12:04:45;3.50;;;2.10;;
46971;SDS011;32722;43.486;2.766;2022-09-12T12:07:13;3.13;;;2.17;;
46971;SDS011;32722;43.486;2.766;2022-09-12T12:09:44;4.57;;;2.05;;
46971;SDS011;32722;43.486;2.766;2022-09-12T12:12:13;6.45;;;2.40;;
46971;SDS011;32722;43.486;2.766;2022-09-12T12:14:42;4.80;;;2.40;;
46971;SDS011;32722;43.486;2.766;2022-09-12T12:17:16;5.47;;;2.40;;
46971;SDS011;32722;43.486;2.766;2022-09-12T12:19:44;4.85;;;2.75;;
46971;SDS011;32722;43.486;2.766;2022-09-12T12:22:15;6.60;;;2.58;;
46971;SDS011;32722;43.486;2.766;2022-09-12T12:35:35;7.30;;;3.22;;
46971;SDS011;32722;43.486;2.766;2022-09-12T12:38:02;9.20;;;2.83;;
46971;SDS011;32722;43.486;2.766;2022-09-12T12:40:29;6.90;;;2.90;;
46971;SDS011;32722;43.486;2.766;2022-09-12T12:43:00;4.45;;;2.78;;
46971;SDS011;32722;43.486;2.766;2022-09-12T12:47:56;6.72;;;2.67;;
46971;SDS011;32722;43.486;2.766;2022-09-12T12:50:25;7.57;;;2.95;;
46971;SDS011;32722;43.486;2.766;2022-09-12T12:52:52;6.30;;;2.97;;
46971;SDS011;32722;43.486;2.766;2022-09-12T12:55:22;9.95;;;2.75;;
46971;SDS011;32722;43.486;2.766;2022-09-12T12:57:54;8.77;;;2.83;;
46971;SDS011;32722;43.486;2.766;2022-09-12T13:05:26;7.82;;;2.83;;
46971;SDS011;32722;43.486;2.766;2022-09-12T13:08:39;8.57;;;3.10;;
46971;SDS011;32722;43.486;2.766;2022-09-12T13:10:40;8.07;;;2.97;;
46971;SDS011;32722;43.486;2.766;2022-09-12T13:13:16;7.13;;;2.65;;
46971;SDS011;32722;43.486;2.766;2022-09-12T13:15:46;6.40;;;2.38;;
46971;SDS011;32722;43.486;2.766;2022-09-12T13:18:17;7.95;;;2.33;;
46971;SDS011;32722;43.486;2.766;2022-09-12T13:23:30;9.45;;;2.70;;
46971;SDS011;32722;43.486;2.766;2022-09-12T13:25:57;5.57;;;2.35;;
46971;SDS011;32722;43.486;2.766;2022-09-12T13:28:25;6.35;;;2.80;;
46971;SDS011;32722;43.486;2.766;2022-09-12T13:33:23;8.75;;;2.50;;
46971;SDS011;32722;43.486;2.766;2022-09-12T13:38:35;6.78;;;2.42;;
46971;SDS011;32722;43.486;2.766;2022-09-12T13:43:38;5.60;;;2.15;;
46971;SDS011;32722;43.486;2.766;2022-09-12T13:46:06;5.03;;;2.05;;
46971;SDS011;32722;43.486;2.766;2022-09-12T13:48:32;5.25;;;2.20;;
46971;SDS011;32722;43.486;2.766;2022-09-12T13:51:02;5.50;;;2.25;;
46971;SDS011;32722;43.486;2.766;2022-09-12T13:53:43;9.93;;;2.33;;
46971;SDS011;32722;43.486;2.766;2022-09-12T13:56:14;5.93;;;1.97;;
46971;SDS011;32722;43.486;2.766;2022-09-12T13:58:49;8.25;;;2.05;;
46971;SDS011;32722;43.486;2.766;2022-09-12T14:01:16;5.60;;;2.25;;
46971;SDS011;32722;43.486;2.766;2022-09-12T14:03:47;6.88;;;2.15;;
46971;SDS011;32722;43.486;2.766;2022-09-12T14:06:50;9.43;;;2.38;;
46971;SDS011;32722;43.486;2.766;2022-09-12T14:09:24;7.82;;;1.83;;
46971;SDS011;32722;43.486;2.766;2022-09-12T14:11:51;3.28;;;1.80;;
46971;SDS011;32722;43.486;2.766;2022-09-12T14:16:46;5.70;;;2.17;;
46971;SDS011;32722;43.486;2.766;2022-09-12T14:19:13;5.38;;;2.53;;
46971;SDS011;32722;43.486;2.766;2022-09-12T14:21:41;7.03;;;2.20;;
46971;SDS011;32722;43.486;2.766;2022-09-12T14:24:08;8.07;;;1.98;;
46971;SDS011;32722;43.486;2.766;2022-09-12T14:26:36;7.72;;;2.22;;
46971;SDS011;32722;43.486;2.766;2022-09-12T14:29:04;5.57;;;1.98;;
46971;SDS011;32722;43.486;2.766;2022-09-12T14:31:33;5.63;;;2.33;;
46971;SDS011;32722;43.486;2.766;2022-09-12T14:34:10;5.80;;;1.85;;
46971;SDS011;32722;43.486;2.766;2022-09-12T14:39:16;7.00;;;2.03;;
46971;SDS011;32722;43.486;2.766;2022-09-12T14:41:43;7.68;;;1.85;;
46971;SDS011;32722;43.486;2.766;2022-09-12T14:44:19;10.20;;;2.10;;
46971;SDS011;32722;43.486;2.766;2022-09-12T14:46:47;8.00;;;2.20;;
46971;SDS011;32722;43.486;2.766;2022-09-12T14:52:02;3.20;;;1.95;;
46971;SDS011;32722;43.486;2.766;2022-09-12T14:56:56;6.78;;;2.33;;
46971;SDS011;32722;43.486;2.766;2022-09-12T15:07:42;3.50;;;2.17;;
46971;SDS011;32722;43.486;2.766;2022-09-12T15:12:40;4.43;;;2.20;;
46971;SDS011;32722;43.486;2.766;2022-09-12T15:15:16;5.95;;;2.20;;
46971;SDS011;32722;43.486;2.766;2022-09-12T15:17:43;4.32;;;2.25;;
46971;SDS011;32722;43.486;2.766;2022-09-12T15:20:09;7.00;;;2.20;;
46971;SDS011;32722;43.486;2.766;2022-09-12T15:22:36;4.05;;;2.13;;
46971;SDS011;32722;43.486;2.766;2022-09-12T15:25:03;5.57;;;2.47;;
46971;SDS011;32722;43.486;2.766;2022-09-12T15:27:30;7.15;;;2.47;;
46971;SDS011;32722;43.486;2.766;2022-09-12T15:29:56;6.00;;;2.40;;
46971;SDS011;32722;43.486;2.766;2022-09-12T15:32:23;7.03;;;2.60;;
46971;SDS011;32722;43.486;2.766;2022-09-12T15:34:49;5.15;;;2.53;;
46971;SDS011;32722;43.486;2.766;2022-09-12T15:37:17;3.55;;;2.40;;
46971;SDS011;32722;43.486;2.766;2022-09-12T15:39:44;7.40;;;2.40;;
46971;SDS011;32722;43.486;2.766;2022-09-12T15:42:11;3.78;;;2.58;;
46971;SDS011;32722;43.486;2.766;2022-09-12T15:44:37;9.80;;;2.58;;
46971;SDS011;32722;43.486;2.766;2022-09-12T15:47:03;5.93;;;2.63;;
46971;SDS011;32722;43.486;2.766;2022-09-12T15:49:30;6.10;;;2.35;;
46971;SDS011;32722;43.486;2.766;2022-09-12T15:51:56;4.22;;;2.33;;
46971;SDS011;32722;43.486;2.766;2022-09-12T15:54:22;7.32;;;2.65;;
46971;SDS011;32722;43.486;2.766;2022-09-12T15:56:48;7.40;;;2.40;;
46971;SDS011;32722;43.486;2.766;2022-09-12T15:59:14;4.18;;;2.38;;
46971;SDS011;32722;43.486;2.766;2022-09-12T16:01:40;7.60;;;2.10;;
46971;SDS011;32722;43.486;2.766;2022-09-12T16:04:26;6.35;;;2.25;;
46971;SDS011;32722;43.486;2.766;2022-09-12T16:06:53;8.48;;;2.70;;
46971;SDS011;32722;43.486;2.766;2022-09-12T16:09:20;7.97;;;2.40;;
46971;SDS011;32722;43.486;2.766;2022-09-12T16:11:46;4.65;;;2.60;;
46971;SDS011;32722;43.486;2.766;2022-09-12T16:14:13;7.13;;;2.83;;
46971;SDS011;32722;43.486;2.766;2022-09-12T16:16:40;5.07;;;2.50;;
46971;SDS011;32722;43.486;2.766;2022-09-12T16:19:06;5.13;;;2.45;;
46971;SDS011;32722;43.486;2.766;2022-09-12T16:21:36;5.63;;;2.60;;
46971;SDS011;32722;43.486;2.766;2022-09-12T16:24:02;4.25;;;2.55;;
46971;SDS011;32722;43.486;2.766;2022-09-12T16:26:29;3.92;;;2.10;;
46971;SDS011;32722;43.486;2.766;2022-09-12T16:28:55;4.68;;;2.10;;
46971;SDS011;32722;43.486;2.766;2022-09-12T16:31:21;7.63;;;2.58;;
46971;SDS011;32722;43.486;2.766;2022-09-12T16:33:48;8.00;;;2.60;;
46971;SDS011;32722;43.486;2.766;2022-09-12T16:36:14;5.88;;;2.70;;
46971;SDS011;32722;43.486;2.766;2022-09-12T16:41:36;5.07;;;2.30;;
46971;SDS011;32722;43.486;2.766;2022-09-12T16:44:02;7.25;;;2.60;;
46971;SDS011;32722;43.486;2.766;2022-09-12T16:46:28;7.07;;;2.70;;
46971;SDS011;32722;43.486;2.766;2022-09-12T16:48:55;7.30;;;2.80;;
46971;SDS011;32722;43.486;2.766;2022-09-12T16:51:24;5.93;;;2.60;;
46971;SDS011;32722;43.486;2.766;2022-09-12T16:53:51;5.43;;;2.58;;
46971;SDS011;32722;43.486;2.766;2022-09-12T16:56:18;7.22;;;2.80;;
46971;SDS011;32722;43.486;2.766;2022-09-12T16:58:44;6.95;;;2.63;;
46971;SDS011;32722;43.486;2.766;2022-09-12T17:01:17;6.43;;;2.33;;
46971;SDS011;32722;43.486;2.766;2022-09-12T17:03:44;6.65;;;2.80;;
46971;SDS011;32722;43.486;2.766;2022-09-12T17:06:14;7.25;;;2.67;;
46971;SDS011;32722;43.486;2.766;2022-09-12T17:08:42;19.80;;;5.75;;
46971;SDS011;32722;43.486;2.766;2022-09-12T17:11:10;8.25;;;2.60;;
46971;SDS011;32722;43.486;2.766;2022-09-12T17:13:37;15.38;;;4.47;;
46971;SDS011;32722;43.486;2.766;2022-09-12T17:16:08;15.90;;;3.70;;
46971;SDS011;32722;43.486;2.766;2022-09-12T17:18:35;10.07;;;3.25;;
46971;SDS011;32722;43.486;2.766;2022-09-12T17:21:01;7.43;;;3.20;;
46971;SDS011;32722;43.486;2.766;2022-09-12T17:23:27;11.45;;;3.17;;
46971;SDS011;32722;43.486;2.766;2022-09-12T17:25:54;7.95;;;2.88;;
46971;SDS011;32722;43.486;2.766;2022-09-12T17:28:20;6.88;;;2.78;;
46971;SDS011;32722;43.486;2.766;2022-09-12T17:30:53;8.77;;;3.08;;
46971;SDS011;32722;43.486;2.766;2022-09-12T17:33:19;10.40;;;3.03;;
46971;SDS011;32722;43.486;2.766;2022-09-12T17:35:45;5.40;;;3.00;;
46971;SDS011;32722;43.486;2.766;2022-09-12T17:38:11;7.90;;;3.28;;
46971;SDS011;32722;43.486;2.766;2022-09-12T17:40:38;6.15;;;2.75;;
46971;SDS011;32722;43.486;2.766;2022-09-12T17:43:04;9.75;;;3.03;;
46971;SDS011;32722;43.486;2.766;2022-09-12T17:45:30;6.38;;;3.20;;
46971;SDS011;32722;43.486;2.766;2022-09-12T17:47:56;7.28;;;3.20;;
46971;SDS011;32722;43.486;2.766;2022-09-12T17:50:23;5.82;;;3.03;;
46971;SDS011;32722;43.486;2.766;2022-09-12T17:52:49;7.82;;;3.45;;